sensor_id;sensor_type;location;lat;lon;timestamp;P1;durP1;ratioP1;P2;durP2;ratioP2
21392;SDS011;10857;52.228;21.026;2022-12-29T08:24:01;11.80;;;6.30;;
21392;SDS011;10857;52.228;21.026;2022-12-29T08:26:50;11.97;;;6.23;;
21392;SDS011;10857;52.228;21.026;2022-12-29T08:29:17;13.10;;;6.63;;
21392;SDS011;10857;52.228;21.026;2022-12-29T08:31:45;14.33;;;6.47;;
21392;SDS011;10857;52.228;21.026;2022-12-29T08:34:13;12.70;;;6.50;;
21392;SDS011;10857;52.228;21.026;2022-12-29T08:36:40;14.13;;;6.20;;
21392;SDS011;10857;52.228;21.026;2022-12-29T08:39:08;10.83;;;6.63;;
21392;SDS011;10857;52.228;21.026;2022-12-29T08:41:35;14.63;;;7.40;;
21392;SDS011;10857;52.228;21.026;2022-12-29T08:44:03;14.10;;;6.70;;
21392;SDS011;10857;52.228;21.026;2022-12-29T08:46:30;10.43;;;6.00;;
21392;SDS011;10857;52.228;21.026;2022-12-29T08:48:58;12.20;;;6.10;;
21392;SDS011;10857;52.228;21.026;2022-12-29T08:51:25;14.57;;;6.27;;
21392;SDS011;10857;52.228;21.026;2022-12-29T08:53:53;12.53;;;7.07;;
21392;SDS011;10857;52.228;21.026;2022-12-29T08:56:21;14.27;;;6.50;;
21392;SDS011;10857;52.228;21.026;2022-12-29T08:58:53;13.77;;;6.20;;
21392;SDS011;10857;52.228;21.026;2022-12-29T09:01:22;13.17;;;6.57;;
21392;SDS011;10857;52.228;21.026;2022-12-29T09:03:50;11.40;;;6.10;;
21392;SDS011;10857;52.228;21.026;2022-12-29T09:06:37;12.00;;;6.30;;
21392;SDS011;10857;52.228;21.026;2022-12-29T09:09:06;13.07;;;6.77;;
21392;SDS011;10857;52.228;21.026;2022-12-29T09:11:33;13.03;;;6.17;;
21392;SDS011;10857;52.228;21.026;2022-12-29T09:14:01;11.33;;;6.43;;
21392;SDS011;10857;52.228;21.026;2022-12-29T09:16:28;11.63;;;6.33;;
21392;SDS011;10857;52.228;21.026;2022-12-29T09:18:56;13.33;;;6.23;;
21392;SDS011;10857;52.228;21.026;2022-12-29T09:21:23;10.63;;;6.03;;
21392;SDS011;10857;52.228;21.026;2022-12-29T09:23:52;11.33;;;6.10;;
21392;SDS011;10857;52.228;21.026;2022-12-29T09:26:19;11.80;;;6.63;;
21392;SDS011;10857;52.228;21.026;2022-12-29T09:28:47;13.87;;;6.40;;
21392;SDS011;10857;52.228;21.026;2022-12-29T09:31:14;10.97;;;6.10;;
21392;SDS011;10857;52.228;21.026;2022-12-29T09:33:41;11.23;;;6.07;;
21392;SDS011;10857;52.228;21.026;2022-12-29T09:36:09;13.13;;;6.10;;
21392;SDS011;10857;52.228;21.026;2022-12-29T09:38:36;14.13;;;6.27;;
21392;SDS011;10857;52.228;21.026;2022-12-29T09:45:24;11.83;;;5.90;;
21392;SDS011;10857;52.228;21.026;2022-12-29T09:47:53;9.87;;;6.00;;
21392;SDS011;10857;52.228;21.026;2022-12-29T09:50:35;11.70;;;6.67;;
21392;SDS011;10857;52.228;21.026;2022-12-29T10:03:51;11.83;;;6.37;;
21392;SDS011;10857;52.228;21.026;2022-12-29T10:11:57;10.13;;;6.50;;
21392;SDS011;10857;52.228;21.026;2022-12-29T10:14:36;11.37;;;6.17;;
21392;SDS011;10857;52.228;21.026;2022-12-29T10:20:16;12.13;;;6.00;;
21392;SDS011;10857;52.228;21.026;2022-12-29T10:23:11;12.37;;;6.57;;
21392;SDS011;10857;52.228;21.026;2022-12-29T10:25:37;14.17;;;7.23;;
21392;SDS011;10857;52.228;21.026;2022-12-29T10:28:09;17.53;;;9.53;;
21392;SDS011;10857;52.228;21.026;2022-12-29T10:30:38;13.43;;;6.60;;
21392;SDS011;10857;52.228;21.026;2022-12-29T10:33:06;11.33;;;6.47;;
21392;SDS011;10857;52.228;21.026;2022-12-29T10:35:36;15.10;;;6.20;;
21392;SDS011;10857;52.228;21.026;2022-12-29T10:40:46;12.43;;;6.30;;
21392;SDS011;10857;52.228;21.026;2022-12-29T10:43:50;15.87;;;6.37;;
21392;SDS011;10857;52.228;21.026;2022-12-29T10:46:11;15.67;;;6.40;;
21392;SDS011;10857;52.228;21.026;2022-12-29T10:48:40;10.40;;;6.23;;
21392;SDS011;10857;52.228;21.026;2022-12-29T10:51:11;14.07;;;6.63;;
21392;SDS011;10857;52.228;21.026;2022-12-29T10:53:45;14.10;;;6.57;;
21392;SDS011;10857;52.228;21.026;2022-12-29T10:56:41;13.70;;;6.53;;
21392;SDS011;10857;52.228;21.026;2022-12-29T10:59:06;13.30;;;6.43;;
21392;SDS011;10857;52.228;21.026;2022-12-29T11:01:37;13.37;;;6.17;;
21392;SDS011;10857;52.228;21.026;2022-12-29T11:04:15;15.10;;;6.57;;
21392;SDS011;10857;52.228;21.026;2022-12-29T11:06:49;13.60;;;6.67;;
21392;SDS011;10857;52.228;21.026;2022-12-29T11:09:21;13.17;;;6.50;;
21392;SDS011;10857;52.228;21.026;2022-12-29T11:12:20;11.57;;;6.47;;
21392;SDS011;10857;52.228;21.026;2022-12-29T11:15:00;10.70;;;6.13;;
21392;SDS011;10857;52.228;21.026;2022-12-29T11:17:28;15.10;;;6.77;;
21392;SDS011;10857;52.228;21.026;2022-12-29T11:19:55;15.13;;;6.83;;
21392;SDS011;10857;52.228;21.026;2022-12-29T11:22:27;11.83;;;6.97;;
21392;SDS011;10857;52.228;21.026;2022-12-29T11:25:05;15.03;;;6.60;;
21392;SDS011;10857;52.228;21.026;2022-12-29T11:27:33;13.80;;;6.93;;
21392;SDS011;10857;52.228;21.026;2022-12-29T11:30:00;13.27;;;7.03;;
21392;SDS011;10857;52.228;21.026;2022-12-29T11:32:29;13.57;;;7.57;;
21392;SDS011;10857;52.228;21.026;2022-12-29T11:34:57;14.50;;;7.37;;
21392;SDS011;10857;52.228;21.026;2022-12-29T11:40:01;15.13;;;6.83;;
21392;SDS011;10857;52.228;21.026;2022-12-29T11:45:22;14.27;;;7.00;;
21392;SDS011;10857;52.228;21.026;2022-12-29T11:47:52;14.93;;;7.00;;
21392;SDS011;10857;52.228;21.026;2022-12-29T11:50:26;14.93;;;7.00;;
21392;SDS011;10857;52.228;21.026;2022-12-29T11:53:05;14.67;;;7.30;;
21392;SDS011;10857;52.228;21.026;2022-12-29T11:55:33;13.43;;;7.23;;
21392;SDS011;10857;52.228;21.026;2022-12-29T11:58:01;13.80;;;7.00;;
21392;SDS011;10857;52.228;21.026;2022-12-29T12:00:30;12.73;;;6.63;;
21392;SDS011;10857;52.228;21.026;2022-12-29T12:03:00;13.47;;;7.23;;
21392;SDS011;10857;52.228;21.026;2022-12-29T12:08:02;14.87;;;6.87;;
21392;SDS011;10857;52.228;21.026;2022-12-29T12:10:34;18.37;;;6.67;;
21392;SDS011;10857;52.228;21.026;2022-12-29T12:13:17;14.10;;;7.40;;
21392;SDS011;10857;52.228;21.026;2022-12-29T12:15:54;13.73;;;7.20;;
21392;SDS011;10857;52.228;21.026;2022-12-29T12:20:54;16.97;;;7.00;;
21392;SDS011;10857;52.228;21.026;2022-12-29T12:25:59;12.57;;;7.47;;
21392;SDS011;10857;52.228;21.026;2022-12-29T12:31:21;13.30;;;7.23;;
21392;SDS011;10857;52.228;21.026;2022-12-29T12:33:53;13.47;;;6.97;;
21392;SDS011;10857;52.228;21.026;2022-12-29T12:39:02;17.40;;;6.90;;
21392;SDS011;10857;52.228;21.026;2022-12-29T16:39:19;14.43;;;8.13;;
21392;SDS011;10857;52.228;21.026;2022-12-29T16:41:50;17.07;;;8.73;;
21392;SDS011;10857;52.228;21.026;2022-12-29T16:44:25;15.00;;;8.43;;
21392;SDS011;10857;52.228;21.026;2022-12-29T16:47:00;16.57;;;8.67;;
21392;SDS011;10857;52.228;21.026;2022-12-29T16:49:29;14.63;;;8.33;;
21392;SDS011;10857;52.228;21.026;2022-12-29T16:51:57;17.67;;;8.97;;
21392;SDS011;10857;52.228;21.026;2022-12-29T16:54:28;17.87;;;8.87;;
21392;SDS011;10857;52.228;21.026;2022-12-29T16:56:57;16.00;;;8.40;;
21392;SDS011;10857;52.228;21.026;2022-12-29T16:59:26;15.93;;;8.60;;
21392;SDS011;10857;52.228;21.026;2022-12-29T17:01:57;14.43;;;8.47;;
21392;SDS011;10857;52.228;21.026;2022-12-29T17:04:26;14.43;;;8.43;;
21392;SDS011;10857;52.228;21.026;2022-12-29T17:06:56;19.17;;;9.90;;
21392;SDS011;10857;52.228;21.026;2022-12-29T17:09:24;17.77;;;8.87;;
21392;SDS011;10857;52.228;21.026;2022-12-29T17:11:53;15.03;;;8.60;;
21392;SDS011;10857;52.228;21.026;2022-12-29T17:14:35;20.00;;;8.67;;
21392;SDS011;10857;52.228;21.026;2022-12-29T17:17:04;16.43;;;8.60;;
21392;SDS011;10857;52.228;21.026;2022-12-29T17:19:35;16.73;;;8.87;;
21392;SDS011;10857;52.228;21.026;2022-12-29T17:22:18;17.90;;;8.43;;
21392;SDS011;10857;52.228;21.026;2022-12-29T17:24:46;15.97;;;8.30;;
21392;SDS011;10857;52.228;21.026;2022-12-29T17:27:19;18.13;;;9.03;;
21392;SDS011;10857;52.228;21.026;2022-12-29T17:29:47;17.10;;;8.33;;
21392;SDS011;10857;52.228;21.026;2022-12-29T17:32:15;14.00;;;8.40;;
21392;SDS011;10857;52.228;21.026;2022-12-29T17:34:42;14.60;;;8.70;;
21392;SDS011;10857;52.228;21.026;2022-12-29T17:37:26;16.63;;;8.53;;
21392;SDS011;10857;52.228;21.026;2022-12-29T17:39:55;16.97;;;8.40;;
21392;SDS011;10857;52.228;21.026;2022-12-29T17:42:22;18.00;;;8.97;;
21392;SDS011;10857;52.228;21.026;2022-12-29T17:44:50;14.57;;;8.63;;
21392;SDS011;10857;52.228;21.026;2022-12-29T17:47:17;15.40;;;8.60;;
21392;SDS011;10857;52.228;21.026;2022-12-29T17:49:45;16.53;;;8.73;;
21392;SDS011;10857;52.228;21.026;2022-12-29T17:52:13;17.20;;;9.10;;
21392;SDS011;10857;52.228;21.026;2022-12-29T17:54:41;16.10;;;8.17;;
21392;SDS011;10857;52.228;21.026;2022-12-29T17:57:14;16.67;;;9.07;;
21392;SDS011;10857;52.228;21.026;2022-12-29T17:59:42;15.00;;;8.87;;
21392;SDS011;10857;52.228;21.026;2022-12-29T18:02:23;17.53;;;8.90;;
21392;SDS011;10857;52.228;21.026;2022-12-29T18:04:51;17.80;;;9.77;;
21392;SDS011;10857;52.228;21.026;2022-12-29T18:07:19;18.77;;;9.30;;
21392;SDS011;10857;52.228;21.026;2022-12-29T18:09:46;17.83;;;9.40;;
21392;SDS011;10857;52.228;21.026;2022-12-29T18:12:33;16.33;;;9.10;;
21392;SDS011;10857;52.228;21.026;2022-12-29T18:15:04;15.07;;;9.07;;
21392;SDS011;10857;52.228;21.026;2022-12-29T18:17:31;18.47;;;9.20;;
21392;SDS011;10857;52.228;21.026;2022-12-29T18:19:58;18.03;;;9.57;;
21392;SDS011;10857;52.228;21.026;2022-12-29T18:22:26;19.77;;;10.47;;
21392;SDS011;10857;52.228;21.026;2022-12-29T18:24:55;19.03;;;9.17;;
21392;SDS011;10857;52.228;21.026;2022-12-29T18:27:22;19.30;;;9.33;;
21392;SDS011;10857;52.228;21.026;2022-12-29T18:29:50;18.23;;;10.17;;
21392;SDS011;10857;52.228;21.026;2022-12-29T18:32:17;19.03;;;10.30;;
21392;SDS011;10857;52.228;21.026;2022-12-29T18:34:46;19.67;;;10.27;;
21392;SDS011;10857;52.228;21.026;2022-12-29T18:37:14;19.40;;;10.47;;
21392;SDS011;10857;52.228;21.026;2022-12-29T18:39:41;19.37;;;10.07;;
21392;SDS011;10857;52.228;21.026;2022-12-29T18:42:09;19.30;;;10.60;;
21392;SDS011;10857;52.228;21.026;2022-12-29T18:44:42;18.43;;;9.97;;
21392;SDS011;10857;52.228;21.026;2022-12-29T18:47:10;19.77;;;10.17;;
21392;SDS011;10857;52.228;21.026;2022-12-29T18:49:37;19.90;;;10.17;;
21392;SDS011;10857;52.228;21.026;2022-12-29T18:52:05;18.93;;;10.23;;
21392;SDS011;10857;52.228;21.026;2022-12-29T18:54:32;19.00;;;10.03;;
21392;SDS011;10857;52.228;21.026;2022-12-29T18:56:59;17.03;;;9.93;;
21392;SDS011;10857;52.228;21.026;2022-12-29T18:59:27;17.10;;;10.67;;
21392;SDS011;10857;52.228;21.026;2022-12-29T19:01:54;17.30;;;10.60;;
21392;SDS011;10857;52.228;21.026;2022-12-29T19:04:22;20.70;;;10.80;;
21392;SDS011;10857;52.228;21.026;2022-12-29T19:06:49;19.53;;;10.00;;
21392;SDS011;10857;52.228;21.026;2022-12-29T19:09:16;24.53;;;10.87;;
21392;SDS011;10857;52.228;21.026;2022-12-29T19:11:44;22.73;;;11.77;;
21392;SDS011;10857;52.228;21.026;2022-12-29T19:14:13;28.13;;;12.43;;
21392;SDS011;10857;52.228;21.026;2022-12-29T19:16:41;20.47;;;10.77;;
21392;SDS011;10857;52.228;21.026;2022-12-29T19:19:12;21.97;;;10.80;;
21392;SDS011;10857;52.228;21.026;2022-12-29T19:21:40;19.57;;;10.90;;
21392;SDS011;10857;52.228;21.026;2022-12-29T19:24:07;18.87;;;10.73;;
21392;SDS011;10857;52.228;21.026;2022-12-29T19:26:36;21.30;;;10.87;;
21392;SDS011;10857;52.228;21.026;2022-12-29T19:29:09;22.60;;;11.63;;
21392;SDS011;10857;52.228;21.026;2022-12-29T19:31:40;20.43;;;11.00;;
21392;SDS011;10857;52.228;21.026;2022-12-29T19:34:08;20.20;;;10.63;;
21392;SDS011;10857;52.228;21.026;2022-12-29T19:36:35;19.77;;;11.07;;
21392;SDS011;10857;52.228;21.026;2022-12-29T19:39:03;20.03;;;11.10;;
21392;SDS011;10857;52.228;21.026;2022-12-29T19:41:31;22.77;;;11.37;;
21392;SDS011;10857;52.228;21.026;2022-12-29T19:43:59;20.77;;;11.37;;
21392;SDS011;10857;52.228;21.026;2022-12-29T19:46:26;21.53;;;11.27;;
21392;SDS011;10857;52.228;21.026;2022-12-29T19:48:54;21.40;;;10.73;;
21392;SDS011;10857;52.228;21.026;2022-12-29T19:51:24;24.13;;;11.50;;
21392;SDS011;10857;52.228;21.026;2022-12-29T19:53:52;20.83;;;11.53;;
21392;SDS011;10857;52.228;21.026;2022-12-29T19:56:20;25.67;;;13.73;;
21392;SDS011;10857;52.228;21.026;2022-12-29T19:58:48;23.70;;;14.43;;
21392;SDS011;10857;52.228;21.026;2022-12-29T20:01:17;21.60;;;11.70;;
21392;SDS011;10857;52.228;21.026;2022-12-29T20:03:45;21.33;;;11.20;;
21392;SDS011;10857;52.228;21.026;2022-12-29T20:06:13;20.60;;;11.10;;
21392;SDS011;10857;52.228;21.026;2022-12-29T20:08:41;20.87;;;11.80;;
21392;SDS011;10857;52.228;21.026;2022-12-29T20:11:12;20.17;;;11.00;;
21392;SDS011;10857;52.228;21.026;2022-12-29T20:13:41;22.57;;;11.27;;
21392;SDS011;10857;52.228;21.026;2022-12-29T20:16:11;21.07;;;11.53;;
21392;SDS011;10857;52.228;21.026;2022-12-29T20:18:39;22.17;;;11.30;;
21392;SDS011;10857;52.228;21.026;2022-12-29T20:21:17;21.40;;;11.37;;
21392;SDS011;10857;52.228;21.026;2022-12-29T20:23:45;21.30;;;11.80;;
21392;SDS011;10857;52.228;21.026;2022-12-29T20:26:14;24.03;;;11.80;;
21392;SDS011;10857;52.228;21.026;2022-12-29T20:28:42;21.80;;;11.47;;
21392;SDS011;10857;52.228;21.026;2022-12-29T20:31:15;22.63;;;11.93;;
21392;SDS011;10857;52.228;21.026;2022-12-29T20:33:47;19.50;;;11.03;;
21392;SDS011;10857;52.228;21.026;2022-12-29T20:36:16;20.13;;;11.50;;
21392;SDS011;10857;52.228;21.026;2022-12-29T20:38:44;24.87;;;11.50;;
21392;SDS011;10857;52.228;21.026;2022-12-29T20:41:12;22.07;;;11.37;;
21392;SDS011;10857;52.228;21.026;2022-12-29T20:43:40;22.10;;;11.60;;
21392;SDS011;10857;52.228;21.026;2022-12-29T20:46:08;24.57;;;11.67;;
21392;SDS011;10857;52.228;21.026;2022-12-29T20:48:37;21.77;;;11.93;;
21392;SDS011;10857;52.228;21.026;2022-12-29T20:51:04;21.87;;;11.27;;
21392;SDS011;10857;52.228;21.026;2022-12-29T20:53:32;26.40;;;11.90;;
21392;SDS011;10857;52.228;21.026;2022-12-29T20:56:01;21.80;;;11.63;;
21392;SDS011;10857;52.228;21.026;2022-12-29T20:58:29;22.53;;;11.40;;
21392;SDS011;10857;52.228;21.026;2022-12-29T21:00:59;23.27;;;11.53;;
21392;SDS011;10857;52.228;21.026;2022-12-29T21:03:27;21.33;;;11.60;;
21392;SDS011;10857;52.228;21.026;2022-12-29T21:05:55;20.40;;;11.17;;
21392;SDS011;10857;52.228;21.026;2022-12-29T21:08:23;21.57;;;11.33;;
21392;SDS011;10857;52.228;21.026;2022-12-29T21:10:50;19.47;;;11.10;;
21392;SDS011;10857;52.228;21.026;2022-12-29T21:13:18;22.57;;;11.33;;
21392;SDS011;10857;52.228;21.026;2022-12-29T21:15:45;21.47;;;11.50;;
21392;SDS011;10857;52.228;21.026;2022-12-29T21:18:13;22.63;;;12.10;;
21392;SDS011;10857;52.228;21.026;2022-12-29T21:20:40;21.87;;;11.57;;
21392;SDS011;10857;52.228;21.026;2022-12-29T21:23:08;20.20;;;11.27;;
21392;SDS011;10857;52.228;21.026;2022-12-29T21:25:35;22.53;;;10.87;;
21392;SDS011;10857;52.228;21.026;2022-12-29T21:28:03;21.40;;;11.20;;
21392;SDS011;10857;52.228;21.026;2022-12-29T21:30:31;22.50;;;10.87;;
21392;SDS011;10857;52.228;21.026;2022-12-29T21:32:59;18.77;;;10.73;;
21392;SDS011;10857;52.228;21.026;2022-12-29T21:35:27;21.60;;;12.20;;
21392;SDS011;10857;52.228;21.026;2022-12-29T21:37:54;30.07;;;16.50;;
21392;SDS011;10857;52.228;21.026;2022-12-29T21:40:21;21.43;;;11.47;;
21392;SDS011;10857;52.228;21.026;2022-12-29T21:42:49;21.43;;;11.40;;
21392;SDS011;10857;52.228;21.026;2022-12-29T21:45:16;21.63;;;11.33;;
21392;SDS011;10857;52.228;21.026;2022-12-29T21:47:54;21.83;;;11.50;;
21392;SDS011;10857;52.228;21.026;2022-12-29T21:50:42;19.93;;;11.03;;
21392;SDS011;10857;52.228;21.026;2022-12-29T21:53:30;20.17;;;11.70;;
21392;SDS011;10857;52.228;21.026;2022-12-29T21:56:05;19.27;;;11.00;;
21392;SDS011;10857;52.228;21.026;2022-12-29T21:58:33;25.17;;;12.10;;
21392;SDS011;10857;52.228;21.026;2022-12-29T22:01:35;21.60;;;12.17;;
21392;SDS011;10857;52.228;21.026;2022-12-29T22:04:22;22.97;;;12.03;;
21392;SDS011;10857;52.228;21.026;2022-12-29T22:07:09;20.83;;;11.03;;
21392;SDS011;10857;52.228;21.026;2022-12-29T22:09:55;19.50;;;10.70;;
21392;SDS011;10857;52.228;21.026;2022-12-29T22:12:41;17.10;;;10.47;;
21392;SDS011;10857;52.228;21.026;2022-12-29T22:15:25;19.20;;;10.20;;
21392;SDS011;10857;52.228;21.026;2022-12-29T22:17:53;19.27;;;10.57;;
21392;SDS011;10857;52.228;21.026;2022-12-29T22:20:22;18.93;;;10.07;;
21392;SDS011;10857;52.228;21.026;2022-12-29T22:22:50;20.73;;;11.13;;
21392;SDS011;10857;52.228;21.026;2022-12-29T22:25:17;18.67;;;10.43;;
21392;SDS011;10857;52.228;21.026;2022-12-29T22:27:45;20.13;;;10.57;;
21392;SDS011;10857;52.228;21.026;2022-12-29T22:30:12;22.87;;;11.20;;
21392;SDS011;10857;52.228;21.026;2022-12-29T22:32:40;17.90;;;9.87;;
21392;SDS011;10857;52.228;21.026;2022-12-29T22:35:08;17.67;;;10.43;;
21392;SDS011;10857;52.228;21.026;2022-12-29T22:37:36;20.33;;;10.30;;
